Time;durP1;ratioP1;P1;durP2;ratioP2;P2;SDS_P1;SDS_P2;PMS_P1;PMS_P2;Temp;Humidity;BMP_temperature;BMP_pressure;BME280_temperature;BME280_humidity;BME280_pressure;Samples;Min_cycle;Max_cycle;Signal;HPM_P1;HPM_P2
2021/12/09 00:02:22;;;;;;;7.32;5.05;;;;;;;0.70;100.00;94473.34;5053468;28;24455;-77
2021/12/09 00:04:49;;;;;;;7.43;5.03;;;;;;;0.73;100.00;94480.00;5053957;28;24439;-78
2021/12/09 00:07:15;;;;;;;7.70;4.78;;;;;;;0.68;100.00;94481.94;5051933;28;24434;-75
2021/12/09 00:09:42;;;;;;;6.57;4.38;;;;;;;0.77;100.00;94475.59;5051779;28;24431;-77
2021/12/09 00:12:09;;;;;;;5.40;4.03;;;;;;;0.79;100.00;94484.81;5051510;28;24515;-76
2021/12/09 00:14:36;;;;;;;6.35;4.40;;;;;;;0.83;100.00;94485.50;5051308;28;24428;-77
2021/12/09 00:17:06;;;;;;;6.30;4.22;;;;;;;0.80;100.00;94488.19;5051054;28;24428;-77
2021/12/09 00:19:34;;;;;;;5.05;3.60;;;;;;;0.82;100.00;94479.59;5051157;28;24431;-77
2021/12/09 00:22:02;;;;;;;8.07;4.18;;;;;;;0.81;100.00;94484.75;5050994;28;24773;-77
2021/12/09 00:24:29;;;;;;;4.07;3.67;;;;;;;0.84;100.00;94485.44;5051140;28;24786;-77
2021/12/09 00:26:55;;;;;;;5.07;3.65;;;;;;;0.82;100.00;94482.13;5050951;28;24423;-77
2021/12/09 00:29:23;;;;;;;6.53;4.15;;;;;;;0.82;100.00;94476.22;5051201;28;24640;-77
2021/12/09 00:31:49;;;;;;;5.82;4.10;;;;;;;0.86;100.00;94480.28;5050929;28;24439;-77
2021/12/09 00:34:16;;;;;;;7.53;4.40;;;;;;;0.89;100.00;94475.00;5050852;28;24434;-77
2021/12/09 00:36:56;;;;;;;6.25;4.00;;;;;;;0.91;100.00;94478.34;5050366;28;24470;-77
2021/12/09 00:39:23;;;;;;;7.57;4.18;;;;;;;0.92;100.00;94485.91;5051065;28;24587;-77
2021/12/09 00:41:49;;;;;;;7.07;3.50;;;;;;;0.92;100.00;94485.91;5050918;28;24424;-77
2021/12/09 00:44:16;;;;;;;6.78;4.30;;;;;;;0.86;100.00;94485.38;5050730;28;24431;-77
2021/12/09 00:46:42;;;;;;;6.15;4.05;;;;;;;0.90;100.00;94485.16;5050415;28;25030;-77
2021/12/09 00:49:09;;;;;;;7.07;4.32;;;;;;;0.92;100.00;94482.53;5050572;28;24934;-77
2021/12/09 00:51:36;;;;;;;5.45;3.80;;;;;;;0.97;100.00;94483.16;5050713;28;24446;-77
2021/12/09 00:54:04;;;;;;;5.50;3.70;;;;;;;0.96;100.00;94479.78;5050616;28;24423;-77
2021/12/09 00:56:31;;;;;;;6.05;3.58;;;;;;;0.97;100.00;94475.50;5050253;28;25006;-77
2021/12/09 00:58:58;;;;;;;5.75;3.47;;;;;;;1.00;100.00;94480.44;5050590;28;24430;-77
2021/12/09 01:01:24;;;;;;;7.40;3.50;;;;;;;1.04;100.00;94476.03;5049495;28;24419;-77
2021/12/09 01:03:52;;;;;;;4.80;3.67;;;;;;;1.05;100.00;94487.91;5050647;28;24431;-77
2021/12/09 01:06:18;;;;;;;6.07;3.88;;;;;;;1.04;100.00;94491.31;5050245;28;24415;-77
2021/12/09 01:08:45;;;;;;;5.18;3.53;;;;;;;1.03;100.00;94492.22;5050421;28;24430;-77
2021/12/09 01:11:15;;;;;;;4.55;3.42;;;;;;;1.05;100.00;94491.28;5050431;28;24532;-77
2021/12/09 01:13:42;;;;;;;5.22;3.90;;;;;;;1.06;100.00;94492.91;5050207;28;24446;-77
2021/12/09 01:16:10;;;;;;;5.03;3.40;;;;;;;1.07;100.00;94496.28;5049819;28;24420;-77
2021/12/09 01:18:38;;;;;;;4.93;3.72;;;;;;;1.08;100.00;94498.78;5050252;28;24945;-77
2021/12/09 01:21:04;;;;;;;5.80;3.50;;;;;;;1.10;100.00;94489.31;5050209;28;24983;-77
2021/12/09 01:23:31;;;;;;;7.15;3.83;;;;;;;1.13;100.00;94496.03;5050117;28;24430;-77
2021/12/09 01:26:02;;;;;;;5.45;3.38;;;;;;;1.14;100.00;94500.22;5049919;28;24660;-77
2021/12/09 01:28:34;;;;;;;4.65;3.40;;;;;;;1.10;100.00;94501.25;5050139;28;24473;-77
2021/12/09 01:31:02;;;;;;;4.72;3.15;;;;;;;1.00;100.00;94502.56;5050256;28;24458;-77
2021/12/09 01:33:29;;;;;;;6.05;3.72;;;;;;;1.07;100.00;94506.50;5050324;28;24420;-77
2021/12/09 01:35:56;;;;;;;5.18;3.47;;;;;;;1.03;100.00;94502.44;5049856;28;24430;-77
2021/12/09 01:38:24;;;;;;;8.35;4.72;;;;;;;1.01;100.00;94502.50;5052269;28;24431;-77
2021/12/09 01:40:51;;;;;;;8.65;3.70;;;;;;;0.95;100.00;94505.34;5055008;28;24418;-78
2021/12/09 01:43:17;;;;;;;5.15;3.05;;;;;;;0.98;100.00;94510.31;5054071;28;24439;-78
2021/12/09 01:45:45;;;;;;;9.40;3.00;;;;;;;0.98;100.00;94512.03;5054586;28;24951;-78
2021/12/09 01:48:11;;;;;;;5.95;2.70;;;;;;;0.99;100.00;94519.59;5054374;28;25015;-78
2021/12/09 01:50:38;;;;;;;6.00;2.80;;;;;;;1.00;100.00;94512.75;5055177;28;24439;-78
2021/12/09 01:53:07;;;;;;;5.93;3.20;;;;;;;1.05;100.00;94514.22;5054588;28;24864;-78
2021/12/09 01:55:34;;;;;;;6.03;2.85;;;;;;;1.04;100.00;94510.03;5054050;28;24480;-77
2021/12/09 01:58:02;;;;;;;8.18;3.10;;;;;;;1.05;100.00;94518.50;5054394;28;24430;-78
2021/12/09 02:00:37;;;;;;;14.98;3.10;;;;;;;1.11;100.00;94516.50;5054606;28;24473;-78
2021/12/09 02:03:05;;;;;;;12.55;2.50;;;;;;;1.16;100.00;94517.09;5054141;28;24435;-77
2021/12/09 02:05:32;;;;;;;9.23;2.60;;;;;;;1.13;100.00;94516.41;5053724;28;24458;-77
2021/12/09 02:07:59;;;;;;;9.75;2.67;;;;;;;1.08;100.00;94513.25;5054308;28;24965;-77
2021/12/09 02:10:27;;;;;;;7.13;2.42;;;;;;;1.06;100.00;94520.97;5054041;28;24442;-78
2021/12/09 02:12:54;;;;;;;6.22;2.58;;;;;;;1.04;100.00;94527.03;5056916;28;24793;-77
2021/12/09 02:15:22;;;;;;;5.50;2.33;;;;;;;1.08;100.00;94524.28;5057006;28;24477;-78
2021/12/09 02:17:49;;;;;;;6.53;2.58;;;;;;;1.16;100.00;94534.97;5057537;28;24856;-78
2021/12/09 02:20:18;;;;;;;4.37;2.00;;;;;;;1.15;100.00;94533.31;5057280;28;24430;-76
2021/12/09 02:22:48;;;;;;;7.35;2.70;;;;;;;1.10;100.00;94540.31;5056761;28;24427;-78
2021/12/09 02:25:16;;;;;;;4.60;2.43;;;;;;;1.23;100.00;94550.00;5055910;28;24423;-78
2021/12/09 02:27:43;;;;;;;5.27;2.17;;;;;;;1.19;100.00;94547.56;5056528;28;24426;-77
2021/12/09 02:30:12;;;;;;;7.78;2.55;;;;;;;1.14;100.00;94567.34;5055966;28;24418;-77
2021/12/09 02:32:38;;;;;;;7.65;2.63;;;;;;;1.15;100.00;94570.72;5056274;28;24774;-78
2021/12/09 02:35:06;;;;;;;5.18;2.28;;;;;;;1.16;100.00;94568.09;5055526;28;24427;-76
2021/12/09 02:37:32;;;;;;;7.45;2.50;;;;;;;1.15;100.00;94574.13;5055495;28;24427;-78
2021/12/09 02:40:00;;;;;;;6.93;2.53;;;;;;;1.12;100.00;94581.91;5055577;28;24473;-78
2021/12/09 02:42:27;;;;;;;7.50;2.60;;;;;;;1.17;100.00;94591.88;5056039;28;24956;-78
2021/12/09 02:44:55;;;;;;;4.20;2.08;;;;;;;1.21;100.00;94589.13;5056192;28;24430;-78
2021/12/09 02:47:22;;;;;;;6.30;2.50;;;;;;;1.21;100.00;94591.66;5056097;28;24520;-78
2021/12/09 02:49:49;;;;;;;5.68;2.33;;;;;;;1.27;100.00;94590.56;5056022;28;24411;-77
2021/12/09 02:52:16;;;;;;;5.05;2.30;;;;;;;1.24;100.00;94595.00;5055954;28;24804;-77
2021/12/09 02:54:43;;;;;;;5.03;2.40;;;;;;;1.28;100.00;94599.06;5056250;28;24434;-77
2021/12/09 02:57:10;;;;;;;6.80;2.20;;;;;;;1.31;100.00;94591.28;5055508;28;24964;-78
2021/12/09 02:59:37;;;;;;;5.03;1.83;;;;;;;1.26;100.00;94603.38;5055851;28;24434;-77
2021/12/09 03:02:06;;;;;;;11.93;2.45;;;;;;;1.21;100.00;94603.59;5056102;28;24424;-78
2021/12/09 03:04:42;;;;;;;5.63;2.40;;;;;;;1.15;100.00;94599.63;5059405;28;24431;-78
2021/12/09 03:07:11;;;;;;;6.38;2.00;;;;;;;1.13;100.00;94595.47;5059377;28;24662;-78
2021/12/09 03:09:47;;;;;;;7.97;2.40;;;;;;;1.05;100.00;94597.53;5058341;28;24793;-78
2021/12/09 03:12:17;;;;;;;7.80;2.63;;;;;;;1.01;100.00;94591.75;5058171;28;24499;-78
2021/12/09 03:14:43;;;;;;;6.80;2.27;;;;;;;1.03;100.00;94597.59;5057535;28;24434;-76
2021/12/09 03:17:10;;;;;;;4.80;2.10;;;;;;;1.00;100.00;94602.81;5052085;28;24844;-76
2021/12/09 03:19:36;;;;;;;9.70;2.65;;;;;;;0.95;100.00;94595.38;5052455;28;24831;-76
2021/12/09 03:22:03;;;;;;;6.50;2.20;;;;;;;0.94;100.00;94587.81;5052483;28;24836;-76
2021/12/09 03:24:30;;;;;;;9.27;2.43;;;;;;;0.89;100.00;94590.56;5051585;28;24426;-76
2021/12/09 03:26:59;;;;;;;8.18;2.22;;;;;;;0.88;100.00;94580.44;5051991;28;24427;-76
2021/12/09 03:29:29;;;;;;;13.48;1.98;;;;;;;0.88;100.00;94583.78;5052255;28;24516;-76
2021/12/09 03:32:00;;;;;;;9.50;2.13;;;;;;;0.90;100.00;94581.19;5052169;28;24993;-76
2021/12/09 03:34:29;;;;;;;7.45;2.33;;;;;;;0.89;100.00;94587.16;5052338;28;24430;-76
2021/12/09 03:36:57;;;;;;;6.50;1.92;;;;;;;0.90;100.00;94583.75;5052048;28;24510;-77
2021/12/09 03:39:28;;;;;;;14.32;2.60;;;;;;;0.93;100.00;94584.44;5052088;28;24515;-77
2021/12/09 03:41:56;;;;;;;8.23;1.85;;;;;;;0.91;100.00;94587.94;5052033;28;24415;-76
2021/12/09 03:44:23;;;;;;;7.80;2.25;;;;;;;0.97;100.00;94585.13;5051918;28;24426;-76
2021/12/09 03:46:53;;;;;;;7.70;2.30;;;;;;;0.91;100.00;94588.75;5051557;28;24971;-76
2021/12/09 03:49:20;;;;;;;13.10;2.60;;;;;;;0.89;100.00;94590.56;5052096;28;24442;-76
2021/12/09 03:51:46;;;;;;;9.45;2.20;;;;;;;0.89;100.00;94602.47;5052017;28;24454;-76
2021/12/09 03:54:13;;;;;;;6.57;2.13;;;;;;;0.90;100.00;94593.94;5051784;28;24419;-76
2021/12/09 03:56:40;;;;;;;6.75;2.40;;;;;;;0.90;100.00;94596.50;5051339;28;24492;-76
2021/12/09 03:59:09;;;;;;;7.60;2.15;;;;;;;0.93;100.00;94597.19;5051822;28;24466;-76
2021/12/09 04:01:37;;;;;;;8.25;2.10;;;;;;;0.90;100.00;94606.69;5051756;28;24955;-76
2021/12/09 04:04:06;;;;;;;8.10;2.35;;;;;;;0.89;100.00;94605.88;5051575;28;24481;-76
2021/12/09 04:06:33;;;;;;;8.20;2.10;;;;;;;0.89;100.00;94602.47;5051271;28;24434;-76
2021/12/09 04:09:00;;;;;;;6.20;1.92;;;;;;;0.87;100.00;94606.81;5051410;28;24411;-77
2021/12/09 04:11:27;;;;;;;4.43;1.95;;;;;;;0.90;100.00;94602.41;5041346;28;24452;-76
2021/12/09 04:13:55;;;;;;;8.82;2.20;;;;;;;0.93;100.00;94604.84;5051296;28;24446;-76
2021/12/09 04:16:22;;;;;;;6.55;1.83;;;;;;;0.88;100.00;94604.19;5050700;28;24478;-77
2021/12/09 04:18:48;;;;;;;7.78;2.17;;;;;;;0.89;100.00;94605.00;5052788;28;24447;-76
2021/12/09 04:21:16;;;;;;;9.32;2.20;;;;;;;0.88;100.00;94605.91;5052461;28;24426;-77
2021/12/09 04:23:43;;;;;;;5.82;1.92;;;;;;;0.91;100.00;94598.13;5052366;28;24434;-76
2021/12/09 04:26:10;;;;;;;7.38;1.83;;;;;;;0.90;100.00;94602.41;5051376;28;24423;-76
2021/12/09 04:28:38;;;;;;;9.07;2.20;;;;;;;0.82;100.00;94596.84;5050009;28;24428;-76
2021/12/09 04:31:05;;;;;;;7.15;2.22;;;;;;;0.76;100.00;94599.63;5051236;28;24463;-76
2021/12/09 04:33:32;;;;;;;7.25;2.03;;;;;;;0.70;100.00;94599.88;5051316;28;24489;-75
2021/12/09 04:36:00;;;;;;;11.07;2.95;;;;;;;0.69;100.00;94609.25;5042342;28;24463;-76
2021/12/09 04:38:29;;;;;;;8.55;2.70;;;;;;;0.69;100.00;94601.63;5051751;28;24411;-78
2021/12/09 04:40:56;;;;;;;4.23;2.43;;;;;;;0.70;100.00;94610.09;5053378;28;24429;-77
2021/12/09 04:43:22;;;;;;;7.00;3.17;;;;;;;0.73;100.00;94615.88;5051375;28;24439;-77
2021/12/09 04:45:49;;;;;;;6.47;3.10;;;;;;;0.81;100.00;94625.75;5051183;28;24793;-78
2021/12/09 04:48:16;;;;;;;6.57;4.10;;;;;;;0.81;100.00;94622.38;5051647;28;24446;-78
2021/12/09 04:50:43;;;;;;;8.25;4.47;;;;;;;0.76;100.00;94629.41;5031936;28;24805;-76
2021/12/09 04:53:11;;;;;;;6.85;4.25;;;;;;;0.72;100.00;94633.78;5030997;28;24471;-77
2021/12/09 04:55:39;;;;;;;8.45;3.83;;;;;;;0.69;100.00;94629.66;5030812;28;24424;-78
2021/12/09 04:58:07;;;;;;;5.75;4.15;;;;;;;0.75;100.00;94638.75;5031248;28;24420;-77
2021/12/09 05:00:38;;;;;;;11.90;6.18;;;;;;;0.69;100.00;94639.00;5032868;28;24431;-76
2021/12/09 05:03:07;;;;;;;10.10;5.63;;;;;;;0.72;100.00;94644.81;5051368;28;24489;-77
2021/12/09 05:05:38;;;;;;;7.25;3.20;;;;;;;0.66;100.00;94654.44;5050534;28;24435;-77
2021/12/09 05:08:06;;;;;;;11.93;2.95;;;;;;;0.71;100.00;94658.44;5051516;28;24501;-77
2021/12/09 05:10:36;;;;;;;6.50;2.60;;;;;;;0.59;100.00;94658.13;5051161;28;24463;-77
2021/12/09 05:13:05;;;;;;;4.77;1.87;;;;;;;0.66;100.00;94659.53;5051291;28;24885;-77
2021/12/09 05:15:32;;;;;;;4.00;1.98;;;;;;;0.67;100.00;94671.41;5050357;28;24438;-77
2021/12/09 05:17:59;;;;;;;4.63;2.05;;;;;;;0.72;100.00;94662.66;5050582;28;24492;-76
2021/12/09 05:20:25;;;;;;;7.50;2.35;;;;;;;0.80;100.00;94679.34;5047543;28;24447;-77
2021/12/09 05:22:52;;;;;;;5.57;2.33;;;;;;;0.79;100.00;94682.78;5052352;28;24526;-78
2021/12/09 05:25:18;;;;;;;5.18;2.60;;;;;;;0.78;100.00;94691.31;5050428;28;24430;-77
2021/12/09 05:27:45;;;;;;;4.43;2.42;;;;;;;0.81;100.00;94706.47;5067560;28;24485;-76
2021/12/09 05:30:13;;;;;;;7.50;2.58;;;;;;;0.81;100.00;94698.81;5051938;28;24880;-76
2021/12/09 05:32:39;;;;;;;14.88;8.32;;;;;;;0.77;100.00;94699.84;5050677;28;24901;-77
2021/12/09 05:35:06;;;;;;;9.60;6.20;;;;;;;0.68;100.00;94704.44;5050102;28;24514;-77
2021/12/09 05:37:33;;;;;;;7.05;4.32;;;;;;;0.71;100.00;94696.69;5048994;28;25003;-76
2021/12/09 05:40:00;;;;;;;5.82;3.20;;;;;;;0.70;100.00;94694.19;5042183;28;24435;-77
2021/12/09 05:42:27;;;;;;;4.63;2.50;;;;;;;0.69;100.00;94698.44;5050161;28;24431;-77
2021/12/09 05:44:56;;;;;;;4.50;2.63;;;;;;;0.70;100.00;94705.22;5049823;28;24500;-76
2021/12/09 05:47:25;;;;;;;5.35;2.63;;;;;;;0.76;100.00;94708.41;5052052;28;24434;-77
2021/12/09 05:49:53;;;;;;;3.83;2.10;;;;;;;0.76;100.00;94716.03;5053672;28;24441;-75
2021/12/09 05:52:19;;;;;;;4.55;2.47;;;;;;;0.65;100.00;94713.94;5038682;28;24850;-77
2021/12/09 05:54:46;;;;;;;6.07;2.30;;;;;;;0.63;100.00;94713.16;5067204;28;25006;-76
2021/12/09 05:57:13;;;;;;;6.78;2.47;;;;;;;0.55;100.00;94717.75;5058487;28;24836;-77
2021/12/09 05:59:41;;;;;;;3.95;2.40;;;;;;;0.45;100.00;94719.84;5057490;28;24447;-77
2021/12/09 06:02:08;;;;;;;4.03;2.13;;;;;;;0.37;100.00;94719.31;5053801;28;24497;-77
2021/12/09 06:04:36;;;;;;;6.25;3.30;;;;;;;0.38;100.00;94724.34;5054000;28;24446;-77
2021/12/09 06:07:03;;;;;;;6.97;3.45;;;;;;;0.35;100.00;94718.56;5053243;28;24450;-77
2021/12/09 06:09:29;;;;;;;5.85;2.45;;;;;;;0.17;100.00;94710.75;5054073;28;24411;-77
2021/12/09 06:11:56;;;;;;;4.50;2.38;;;;;;;0.06;100.00;94714.59;5054208;28;24550;-77
2021/12/09 06:14:22;;;;;;;3.93;1.97;;;;;;;0.02;100.00;94713.88;5033856;28;24439;-76
2021/12/09 06:16:49;;;;;;;4.90;2.00;;;;;;;0.11;100.00;94723.72;5033891;28;24793;-77
2021/12/09 06:19:16;;;;;;;4.43;1.92;;;;;;;0.21;100.00;94719.91;5038775;28;24443;-77
2021/12/09 06:21:43;;;;;;;6.45;2.63;;;;;;;0.21;100.00;94730.09;5054821;28;24952;-76
2021/12/09 06:24:10;;;;;;;5.63;2.70;;;;;;;0.24;100.00;94727.44;5054361;28;24431;-77
2021/12/09 06:26:37;;;;;;;23.85;4.18;;;;;;;0.21;100.00;94729.28;5053740;28;24430;-75
2021/12/09 06:29:07;;;;;;;5.22;4.22;;;;;;;0.22;100.00;94726.69;5053903;28;24453;-77
2021/12/09 06:31:34;;;;;;;45.60;7.00;;;;;;;0.27;100.00;94733.31;5053926;28;24426;-69
2021/12/09 06:34:00;;;;;;;10.30;4.47;;;;;;;0.34;100.00;94730.47;5038664;28;24494;-76
2021/12/09 06:36:27;;;;;;;52.78;5.43;;;;;;;0.13;100.00;94742.31;5056996;28;24442;-74
2021/12/09 06:38:55;;;;;;;4.75;3.25;;;;;;;0.16;100.00;94737.09;5053381;28;24465;-74
2021/12/09 06:41:22;;;;;;;4.07;2.88;;;;;;;0.11;100.00;94736.47;5053211;28;24442;-74
2021/12/09 06:43:48;;;;;;;5.25;2.75;;;;;;;0.16;100.00;94734.56;5052837;28;24442;-75
2021/12/09 06:46:15;;;;;;;4.32;3.15;;;;;;;0.12;100.00;94732.19;5050839;28;24431;-76
2021/12/09 06:48:41;;;;;;;5.63;3.03;;;;;;;0.16;100.00;94732.00;5052615;28;24439;-74
2021/12/09 06:51:09;;;;;;;4.75;3.00;;;;;;;0.19;100.00;94726.81;5052755;28;24481;-75
2021/12/09 06:53:37;;;;;;;6.72;4.45;;;;;;;0.20;100.00;94720.00;5052397;28;24801;-74
2021/12/09 06:56:05;;;;;;;5.70;4.15;;;;;;;0.23;100.00;94724.97;5058844;28;24442;-75
2021/12/09 06:58:32;;;;;;;6.22;4.68;;;;;;;0.23;100.00;94728.34;5058487;28;24847;-75
2021/12/09 07:01:00;;;;;;;7.10;4.93;;;;;;;0.24;100.00;94722.34;5052440;28;24436;-75
2021/12/09 07:03:27;;;;;;;5.57;3.80;;;;;;;0.30;100.00;94721.28;5052493;28;24550;-74
2021/12/09 07:05:55;;;;;;;6.13;3.75;;;;;;;0.34;100.00;94720.28;5051651;28;24797;-75
2021/12/09 07:08:22;;;;;;;6.55;4.20;;;;;;;0.40;100.00;94734.47;5053863;28;24438;-76
2021/12/09 07:10:51;;;;;;;8.23;3.67;;;;;;;0.38;100.00;94728.63;5052075;28;24451;-74
2021/12/09 07:13:19;;;;;;;8.52;3.20;;;;;;;0.31;100.00;94727.22;5051789;28;24451;-74
2021/12/09 07:15:45;;;;;;;3.78;3.00;;;;;;;0.27;100.00;94723.13;5051691;28;24443;-74
2021/12/09 07:18:12;;;;;;;9.18;3.17;;;;;;;0.29;100.00;94723.88;5064579;28;24459;-74
2021/12/09 07:20:38;;;;;;;5.78;3.42;;;;;;;0.29;100.00;94716.25;5068975;28;24813;-74
2021/12/09 07:23:05;;;;;;;4.05;2.85;;;;;;;0.28;100.00;94720.50;5052258;28;24436;-75
2021/12/09 07:25:31;;;;;;;4.07;2.88;;;;;;;0.33;100.00;94726.25;5051773;28;24446;-75
2021/12/09 07:27:58;;;;;;;6.27;2.80;;;;;;;0.41;100.00;94731.06;5052412;28;24432;-75
2021/12/09 07:30:29;;;;;;;7.15;3.53;;;;;;;0.36;100.00;94727.84;5051925;28;24848;-74
2021/12/09 07:32:56;;;;;;;10.23;3.30;;;;;;;0.31;100.00;94728.03;5035287;28;24447;-74
2021/12/09 07:35:26;;;;;;;6.07;3.45;;;;;;;0.25;100.00;94738.44;5050791;28;24832;-74
2021/12/09 07:37:52;;;;;;;7.85;3.35;;;;;;;0.27;100.00;94738.41;5051891;28;24534;-74
2021/12/09 07:40:20;;;;;;;8.88;3.00;;;;;;;0.31;100.00;94745.03;5052093;28;24443;-74
2021/12/09 07:42:47;;;;;;;3.55;2.53;;;;;;;0.39;100.00;94746.38;5051903;28;24787;-74
2021/12/09 07:45:14;;;;;;;4.63;2.45;;;;;;;0.43;100.00;94755.56;5051127;28;24524;-75
2021/12/09 07:47:43;;;;;;;4.38;2.50;;;;;;;0.41;100.00;94751.44;5047875;28;24438;-75
2021/12/09 07:50:13;;;;;;;6.22;2.60;;;;;;;0.49;100.00;94757.03;5051856;28;24563;-76
2021/12/09 07:52:41;;;;;;;3.08;2.08;;;;;;;0.53;100.00;94762.84;5051627;28;24467;-75
2021/12/09 07:55:08;;;;;;;6.57;2.78;;;;;;;0.60;100.00;94756.63;5051298;28;24443;-75
2021/12/09 07:57:35;;;;;;;3.80;2.20;;;;;;;0.64;100.00;94758.97;5051613;28;24438;-75
2021/12/09 08:00:03;;;;;;;2.53;1.90;;;;;;;0.68;100.00;94757.13;5051224;28;24440;-75
2021/12/09 08:02:30;;;;;;;3.10;2.10;;;;;;;0.67;100.00;94758.03;5051688;28;24476;-75
2021/12/09 08:04:57;;;;;;;8.23;2.33;;;;;;;0.66;100.00;94762.28;5051628;28;24443;-76
2021/12/09 08:07:24;;;;;;;3.55;2.00;;;;;;;0.66;100.00;94764.81;5051476;28;24460;-74
2021/12/09 08:09:51;;;;;;;2.83;1.88;;;;;;;0.68;100.00;94770.69;5051384;28;24857;-74
2021/12/09 08:12:18;;;;;;;3.72;2.30;;;;;;;0.74;100.00;94769.59;5051330;28;24836;-75
2021/12/09 08:14:44;;;;;;;4.78;2.50;;;;;;;0.77;100.00;94778.84;5051155;28;24443;-75
2021/12/09 08:17:23;;;;;;;3.92;2.22;;;;;;;0.76;100.00;94772.13;5051403;28;24442;-75
2021/12/09 08:19:49;;;;;;;4.20;2.58;;;;;;;0.66;100.00;94785.22;5050904;28;25049;-75
2021/12/09 08:22:17;;;;;;;5.93;2.63;;;;;;;0.65;100.00;94791.22;5051652;28;24443;-75
2021/12/09 08:24:44;;;;;;;4.60;2.73;;;;;;;0.68;100.00;94780.06;5051227;28;24489;-75
2021/12/09 08:27:10;;;;;;;3.65;2.53;;;;;;;0.76;100.00;94778.03;5050796;28;24442;-75
2021/12/09 08:29:37;;;;;;;4.85;2.58;;;;;;;0.82;100.00;94777.78;5051167;28;24988;-76
2021/12/09 08:32:03;;;;;;;6.18;2.90;;;;;;;0.85;100.00;94789.56;5051148;28;24493;-75
2021/12/09 08:34:30;;;;;;;4.72;2.95;;;;;;;0.92;100.00;94783.34;5050665;28;24459;-75
2021/12/09 08:36:57;;;;;;;3.43;2.50;;;;;;;0.93;100.00;94785.84;5051006;28;24489;-75
2021/12/09 08:39:25;;;;;;;3.35;2.63;;;;;;;0.93;100.00;94790.09;5050937;28;25004;-74
2021/12/09 08:41:51;;;;;;;5.43;2.70;;;;;;;0.78;100.00;94793.25;5051352;28;24852;-74
2021/12/09 08:44:18;;;;;;;5.40;2.78;;;;;;;0.80;100.00;94796.59;5051192;28;24736;-76
2021/12/09 08:46:44;;;;;;;4.72;2.38;;;;;;;0.84;100.00;94798.94;5051189;28;24423;-73
2021/12/09 08:49:12;;;;;;;5.07;2.30;;;;;;;0.96;100.00;94801.00;5050841;28;21336;-75
2021/12/09 08:51:40;;;;;;;4.43;2.70;;;;;;;0.90;100.00;94802.97;5051617;28;24469;-75
2021/12/09 08:54:07;;;;;;;6.93;2.95;;;;;;;0.99;100.00;94807.69;5051043;28;24522;-78
2021/12/09 08:56:36;;;;;;;4.50;2.60;;;;;;;1.11;100.00;94809.75;5051354;28;24564;-77
2021/12/09 08:59:04;;;;;;;5.68;2.78;;;;;;;1.11;100.00;94809.75;5051559;28;24481;-77
2021/12/09 09:01:31;;;;;;;5.05;3.00;;;;;;;1.20;100.00;94824.66;5051655;28;24501;-77
2021/12/09 09:03:57;;;;;;;5.93;2.77;;;;;;;1.23;100.00;94810.97;5051203;28;24471;-75
2021/12/09 09:06:24;;;;;;;7.50;2.95;;;;;;;1.20;100.00;94821.28;5051017;28;24426;-75
2021/12/09 09:08:56;;;;;;;4.07;2.50;;;;;;;1.17;100.00;94829.06;5051424;28;24419;-76
2021/12/09 09:11:23;;;;;;;4.10;2.85;;;;;;;1.21;100.00;94818.66;5051231;28;24437;-75
2021/12/09 09:13:51;;;;;;;4.78;3.10;;;;;;;1.31;100.00;94821.66;5050820;28;24455;-75
2021/12/09 09:16:17;;;;;;;5.43;2.92;;;;;;;1.31;100.00;94823.41;5065909;22;24601;-72
2021/12/09 09:18:45;;;;;;;4.22;2.85;;;;;;;1.32;100.00;94817.38;5050454;28;24411;-71
2021/12/09 09:21:11;;;;;;;5.07;2.88;;;;;;;1.35;100.00;94812.16;5049474;28;24442;-72
2021/12/09 09:23:37;;;;;;;4.55;2.97;;;;;;;1.36;100.00;94822.28;5049731;28;25016;-72
2021/12/09 09:26:04;;;;;;;4.80;3.22;;;;;;;1.42;100.00;94824.59;5049493;28;24446;-72
2021/12/09 09:28:31;;;;;;;5.40;3.03;;;;;;;1.41;100.00;94825.50;5049821;28;24819;-72
2021/12/09 09:31:00;;;;;;;6.55;3.75;;;;;;;1.46;100.00;94830.41;5049919;28;24477;-71
2021/12/09 09:33:29;;;;;;;6.73;3.43;;;;;;;1.54;100.00;94838.56;5049566;28;24551;-71
2021/12/09 09:35:56;;;;;;;8.75;3.83;;;;;;;1.56;100.00;94835.91;5038045;28;24457;-71
2021/12/09 09:38:24;;;;;;;8.43;4.10;;;;;;;1.59;100.00;94844.28;5049868;28;24439;-71
2021/12/09 09:40:59;;;;;;;10.23;4.32;;;;;;;1.62;100.00;94845.88;5050053;28;24435;-71
2021/12/09 09:43:29;;;;;;;7.03;4.05;;;;;;;1.77;100.00;94839.28;5049655;28;24534;-71
2021/12/09 09:46:01;;;;;;;8.25;4.00;;;;;;;1.75;100.00;94841.91;5049595;28;24530;-71
2021/12/09 09:48:29;;;;;;;6.35;4.07;;;;;;;1.79;100.00;94848.56;5049842;28;24435;-72
2021/12/09 09:50:55;;;;;;;9.00;4.05;;;;;;;1.83;100.00;94851.78;5049895;28;24653;-71
2021/12/09 09:53:22;;;;;;;5.68;3.58;;;;;;;1.86;100.00;94852.50;5049687;28;24548;-73
2021/12/09 09:55:48;;;;;;;6.63;3.10;;;;;;;1.86;100.00;94849.13;5049155;28;24988;-72
2021/12/09 09:58:16;;;;;;;7.28;3.38;;;;;;;1.96;100.00;94852.06;5049806;28;24530;-71
2021/12/09 10:00:43;;;;;;;5.07;3.13;;;;;;;1.98;100.00;94853.69;5049337;28;24435;-72
2021/12/09 10:03:17;;;;;;;9.27;2.92;;;;;;;1.88;100.00;94853.25;5049541;28;24485;-71
2021/12/09 10:05:46;;;;;;;5.22;2.95;;;;;;;1.87;100.00;94851.59;5049051;28;24447;-70
2021/12/09 10:08:14;;;;;;;13.63;3.03;;;;;;;1.82;100.00;94855.25;5049551;28;24435;-71
2021/12/09 10:10:41;;;;;;;4.20;2.65;;;;;;;1.87;100.00;94855.88;5049704;28;24467;-71
2021/12/09 10:13:10;;;;;;;4.05;2.50;;;;;;;1.94;100.00;94859.81;5048816;28;24431;-71
2021/12/09 10:15:40;;;;;;;8.73;2.60;;;;;;;1.91;100.00;94855.66;5048991;28;24443;-71
2021/12/09 10:18:08;;;;;;;3.90;2.25;;;;;;;1.90;100.00;94861.69;5049614;28;24435;-72
2021/12/09 10:20:55;;;;;;;4.95;2.50;;;;;;;1.99;100.00;94859.63;5049451;28;25197;-72
2021/12/09 10:23:39;;;;;;;3.80;2.30;;;;;;;2.02;100.00;94865.41;5049368;28;24979;-71
2021/12/09 10:26:27;;;;;;;4.35;2.50;;;;;;;2.02;100.00;94862.88;5048646;28;24439;-71
2021/12/09 10:29:05;;;;;;;4.28;2.58;;;;;;;2.07;100.00;94857.53;5043468;28;24435;-71
2021/12/09 10:31:35;;;;;;;3.40;2.30;;;;;;;2.11;100.00;94857.38;5049525;28;24438;-71
2021/12/09 10:34:10;;;;;;;4.72;2.20;;;;;;;2.09;100.00;94860.88;5051584;28;24969;-71
2021/12/09 10:37:01;;;;;;;8.40;2.27;;;;;;;2.12;100.00;94869.22;5051877;28;24448;-71
2021/12/09 10:39:35;;;;;;;4.73;2.20;;;;;;;2.12;100.00;94860.75;5040004;28;24542;-73
2021/12/09 10:42:05;;;;;;;6.00;2.70;;;;;;;2.14;100.00;94858.94;5052829;28;24525;-71
2021/12/09 10:44:37;;;;;;;5.20;2.57;;;;;;;2.13;100.00;94864.94;5052678;28;24611;-70
2021/12/09 10:47:09;;;;;;;8.38;2.90;;;;;;;2.11;100.00;94870.13;5052045;28;24999;-71
2021/12/09 10:49:47;;;;;;;7.20;3.25;;;;;;;2.11;100.00;94854.81;5052872;28;24462;-71
2021/12/09 10:52:39;;;;;;;9.25;3.25;;;;;;;2.27;100.00;94854.94;5052748;28;24439;-71
2021/12/09 10:55:20;;;;;;;7.60;3.30;;;;;;;2.21;100.00;94857.75;5051955;28;24984;-71
2021/12/09 10:57:55;;;;;;;6.38;2.95;;;;;;;2.24;100.00;94859.38;5052274;28;24439;-71
2021/12/09 11:00:28;;;;;;;8.70;3.33;;;;;;;2.41;100.00;94841.53;5052719;28;24434;-71
2021/12/09 11:03:04;;;;;;;6.45;2.92;;;;;;;2.32;100.00;94844.50;5052229;28;24824;-71
2021/12/09 11:05:34;;;;;;;11.02;3.55;;;;;;;2.33;100.00;94826.53;5051481;28;24450;-71
2021/12/09 11:08:18;;;;;;;9.23;3.33;;;;;;;2.51;100.00;94826.59;5052087;28;24435;-72
2021/12/09 11:10:49;;;;;;;9.13;3.25;;;;;;;2.56;100.00;94832.31;5052376;28;24442;-72
2021/12/09 11:13:18;;;;;;;8.10;2.75;;;;;;;2.52;100.00;94834.22;5052240;28;24447;-71
2021/12/09 11:15:49;;;;;;;6.15;2.90;;;;;;;2.52;100.00;94836.78;5051859;28;24446;-71
2021/12/09 11:18:33;;;;;;;6.22;2.88;;;;;;;2.65;100.00;94837.03;5052135;28;24546;-72
2021/12/09 11:21:01;;;;;;;6.43;3.03;;;;;;;2.61;100.00;94835.50;5052014;28;24439;-72
2021/12/09 11:23:36;;;;;;;6.30;2.70;;;;;;;2.58;100.00;94830.53;5052028;28;25002;-72
2021/12/09 11:26:35;;;;;;;7.60;3.08;;;;;;;2.60;100.00;94821.91;5051675;28;24796;-71
2021/12/09 11:29:07;;;;;;;6.93;2.67;;;;;;;2.56;100.00;94828.06;5051719;28;25078;-71
2021/12/09 11:31:40;;;;;;;6.87;2.90;;;;;;;2.48;100.00;94822.44;5052006;28;24538;-71
2021/12/09 11:34:12;;;;;;;5.97;2.83;;;;;;;2.69;100.00;94818.06;5048099;28;24452;-71
2021/12/09 11:36:42;;;;;;;7.95;2.92;;;;;;;2.74;100.00;94822.97;5047032;28;24451;-72
2021/12/09 11:39:15;;;;;;;8.32;2.90;;;;;;;2.62;100.00;94822.66;5051186;28;24443;-73